Time;durP1;ratioP1;P1;durP2;ratioP2;P2;SDS_P1;SDS_P2;PMS_P1;PMS_P2;Temp;Humidity;BMP_temperature;BMP_pressure;BME280_temperature;BME280_humidity;BME280_pressure;Samples;Min_cycle;Max_cycle;Signal;HPM_P1;HPM_P2
2023/06/09 00:00:36;;;;;;;;;0.00;0.00;;;;;-146.67;30.18;73216.41;4982080;28;61885;-80
2023/06/09 00:03:03;;;;;;;;;0.00;0.00;;;;;-146.67;30.17;73228.38;4980461;28;61858;-80
2023/06/09 00:05:32;;;;;;;;;0.00;0.00;;;;;-146.67;30.63;73228.38;4980331;28;61786;-80
2023/06/09 00:08:00;;;;;;;;;0.00;0.00;;;;;-146.67;30.51;73236.34;4982397;28;63775;-80
2023/06/09 00:10:25;;;;;;;;;0.00;0.00;;;;;-146.67;30.41;73238.34;4998261;28;62225;-80
2023/06/09 00:12:52;;;;;;;;;0.00;0.00;;;;;-146.67;30.52;73240.34;5020444;28;61998;-79
2023/06/09 00:15:18;;;;;;;;;0.00;0.00;;;;;-146.67;30.60;73236.34;5005118;28;61849;-79
2023/06/09 00:17:43;;;;;;;;;0.00;0.00;;;;;-146.67;30.74;73242.34;5002823;28;63779;-79
2023/06/09 00:20:10;;;;;;;;;0.00;0.00;;;;;-146.67;30.85;73256.31;5005122;28;62008;-79
2023/06/09 00:22:42;;;;;;;;;0.00;0.00;;;;;-146.67;30.76;73260.31;5003145;28;61915;-79
2023/06/09 00:25:10;;;;;;;;;0.00;0.00;;;;;-146.67;30.79;73262.31;5003996;28;62005;-79
2023/06/09 00:27:36;;;;;;;;;0.00;0.00;;;;;-146.67;30.81;73262.31;5019510;28;63656;-80
2023/06/09 00:30:02;;;;;;;;;0.00;0.00;;;;;-146.67;30.92;73266.28;5004874;28;61772;-79
2023/06/09 00:32:28;;;;;;;;;0.00;0.00;;;;;-146.67;31.25;73278.28;4986420;28;61989;-79
2023/06/09 00:34:53;;;;;;;;;0.00;0.00;;;;;-146.67;31.07;73278.28;5005229;28;61797;-80
2023/06/09 00:37:19;;;;;;;;;0.00;0.00;;;;;-146.67;31.11;73290.25;5003829;28;62681;-80
2023/06/09 00:39:44;;;;;;;;;0.00;0.00;;;;;-146.67;30.89;73290.25;5003848;28;61841;-79
2023/06/09 00:42:10;;;;;;;;;0.00;0.00;;;;;-146.67;30.92;73298.22;5004711;28;62227;-79
2023/06/09 00:44:35;;;;;;;;;0.00;0.00;;;;;-146.67;31.28;73298.22;5004495;28;61778;-79
2023/06/09 00:47:01;;;;;;;;;0.00;0.00;;;;;-146.67;30.96;73298.22;5002416;28;63754;-79
2023/06/09 00:49:26;;;;;;;;;0.00;0.00;;;;;-146.67;31.25;73286.25;5003242;28;61764;-79
2023/06/09 00:51:52;;;;;;;;;0.00;0.00;;;;;-146.67;31.17;73284.25;5003325;28;61932;-79
2023/06/09 00:54:19;;;;;;;;;0.00;0.00;;;;;-146.67;31.36;73294.22;5003276;28;61986;-79
2023/06/09 00:56:44;;;;;;;;;0.00;0.00;;;;;-146.67;31.24;73290.25;5003652;28;61854;-79
2023/06/09 00:59:13;;;;;;;;;0.00;0.00;;;;;-146.67;31.10;73286.25;4987218;28;61939;-79
2023/06/09 01:01:40;;;;;;;;;0.00;0.00;;;;;-146.67;31.22;73286.25;5004236;28;61804;-79
2023/06/09 01:04:06;;;;;;;;;0.00;0.00;;;;;-146.67;31.03;73280.25;5004445;28;61989;-79
2023/06/09 01:06:40;;;;;;;;;0.00;0.00;;;;;-146.67;31.37;73274.28;5003019;28;62032;-79
2023/06/09 01:09:14;;;;;;;;;0.00;0.00;;;;;-146.67;31.33;73278.28;5003890;28;61982;-80
2023/06/09 01:11:58;;;;;;;;;0.00;0.00;;;;;-146.67;31.20;73282.25;4997706;28;62066;-79
2023/06/09 01:14:31;;;;;;;;;0.00;0.00;;;;;-146.67;31.29;73284.25;5002645;28;62103;-79
2023/06/09 01:17:07;;;;;;;;;0.00;0.00;;;;;-146.67;31.42;73290.25;5003559;28;61913;-79
2023/06/09 01:19:45;;;;;;;;;0.00;0.00;;;;;-146.67;31.37;73280.25;5003251;28;61909;-80
2023/06/09 01:22:14;;;;;;;;;0.00;0.00;;;;;-146.67;31.28;73292.25;5003759;28;61993;-80
2023/06/09 01:24:48;;;;;;;;;0.00;0.00;;;;;-146.67;31.66;73294.22;4986284;28;62191;-79
2023/06/09 01:27:18;;;;;;;;;0.00;0.00;;;;;-146.67;31.41;73298.22;5003542;28;62099;-79
2023/06/09 01:29:45;;;;;;;;;0.00;0.00;;;;;-146.67;31.57;73310.19;4990195;28;61909;-80
2023/06/09 01:32:15;;;;;;;;;0.00;0.00;;;;;-146.67;31.75;73302.22;4966778;28;61897;-80
2023/06/09 01:34:42;;;;;;;;;0.00;0.00;;;;;-146.67;31.59;73314.19;5000041;28;61805;-80
2023/06/09 01:37:07;;;;;;;;;0.00;0.00;;;;;-146.67;31.59;73330.16;4985430;28;63683;-79
2023/06/09 01:39:33;;;;;;;;;0.00;0.00;;;;;-146.67;31.77;73312.19;4985529;28;61990;-79
2023/06/09 01:41:58;;;;;;;;;0.00;0.00;;;;;-146.67;31.72;73314.19;5003685;28;61843;-80
2023/06/09 01:44:23;;;;;;;;;0.00;0.00;;;;;-146.67;31.76;73324.16;4985748;28;61941;-80
2023/06/09 01:46:49;;;;;;;;;0.00;0.00;;;;;-146.67;31.90;73320.19;5002908;28;63561;-80
2023/06/09 01:49:22;;;;;;;;;0.00;0.00;;;;;-146.67;31.90;73322.19;4985732;28;61831;-79
2023/06/09 01:51:54;;;;;;;;;0.00;0.00;;;;;-146.67;31.70;73324.16;5002929;28;61694;-79
2023/06/09 01:54:35;;;;;;;;;0.00;0.00;;;;;-146.67;31.90;73332.16;5003626;28;61939;-80
2023/06/09 01:57:17;;;;;;;;;0.00;0.00;;;;;-146.67;31.98;73330.16;4985200;28;65105;-79
2023/06/09 01:59:51;;;;;;;;;0.00;0.00;;;;;-146.67;32.02;73332.16;4983581;28;62136;-79
2023/06/09 02:02:19;;;;;;;;;0.00;0.00;;;;;-146.67;32.07;73344.13;4966279;28;61943;-80
2023/06/09 02:04:46;;;;;;;;;0.00;0.00;;;;;-146.67;32.36;73352.13;4966182;28;61933;-79
2023/06/09 02:07:16;;;;;;;;;0.00;0.00;;;;;-146.67;32.21;73366.09;4965245;28;64901;-80
2023/06/09 02:09:44;;;;;;;;;0.00;0.00;;;;;-146.67;32.20;73370.06;4973767;28;61976;-79
2023/06/09 02:12:10;;;;;;;;;0.00;0.00;;;;;-146.67;32.04;73374.06;4985507;28;61913;-80
2023/06/09 02:14:36;;;;;;;;;0.00;0.00;;;;;-146.67;32.33;73380.06;5002931;28;61830;-79
2023/06/09 02:17:04;;;;;;;;;0.00;0.00;;;;;-146.67;32.44;73386.03;5002238;28;61846;-80
2023/06/09 02:19:30;;;;;;;;;0.00;0.00;;;;;-146.67;32.30;73376.06;5003098;28;61919;-79
2023/06/09 02:21:57;;;;;;;;;0.00;0.00;;;;;-146.67;32.50;73376.06;5001342;28;61898;-79
2023/06/09 02:24:27;;;;;;;;;0.00;0.00;;;;;-146.67;32.41;73394.03;4995985;28;61971;-79
2023/06/09 02:26:53;;;;;;;;;0.00;0.00;;;;;-146.67;32.75;73394.03;5001076;28;64618;-79
2023/06/09 02:29:19;;;;;;;;;0.00;0.00;;;;;-146.67;32.50;73398.03;5002689;28;62005;-79
2023/06/09 02:31:44;;;;;;;;;0.00;0.00;;;;;-146.67;32.68;73392.03;5000804;28;62030;-79
2023/06/09 02:34:10;;;;;;;;;0.00;0.00;;;;;-146.67;32.54;73390.03;5002879;28;62106;-79
2023/06/09 02:36:37;;;;;;;;;0.00;0.00;;;;;-146.67;32.90;73394.03;4988392;28;63532;-79
2023/06/09 02:39:03;;;;;;;;;0.00;0.00;;;;;-146.67;32.81;73402.00;5002180;28;61713;-79
2023/06/09 02:41:29;;;;;;;;;0.00;0.00;;;;;-146.67;32.62;73410.00;5002464;28;61783;-79
2023/06/09 02:43:55;;;;;;;;;0.00;0.00;;;;;-146.67;32.52;73410.00;5002860;28;62085;-79
2023/06/09 02:46:22;;;;;;;;;0.00;0.00;;;;;-146.67;32.78;73410.00;4984405;28;65125;-79
2023/06/09 02:48:48;;;;;;;;;0.00;0.00;;;;;-146.67;32.81;73406.00;5002508;28;61904;-79
2023/06/09 02:51:14;;;;;;;;;0.00;0.00;;;;;-146.67;32.36;73406.00;5000989;28;61770;-79
2023/06/09 02:53:39;;;;;;;;;0.00;0.00;;;;;-146.67;32.59;73400.03;5002839;28;61850;-79
2023/06/09 02:56:05;;;;;;;;;0.00;0.00;;;;;-146.67;32.57;73406.00;5001630;28;62045;-79
2023/06/09 02:58:30;;;;;;;;;0.00;0.00;;;;;-146.67;32.58;73402.00;4996278;28;61891;-79
2023/06/09 03:00:56;;;;;;;;;0.00;0.00;;;;;-146.67;32.81;73412.00;5002921;28;61858;-79
2023/06/09 03:03:22;;;;;;;;;0.00;0.00;;;;;-146.67;33.05;73408.00;4984581;28;61920;-79
2023/06/09 03:05:49;;;;;;;;;0.00;0.00;;;;;-146.67;33.03;73415.97;5001590;28;62778;-79
2023/06/09 03:08:15;;;;;;;;;0.00;0.00;;;;;-146.67;32.69;73415.97;5000546;28;61867;-79
2023/06/09 03:10:40;;;;;;;;;0.00;0.00;;;;;-146.67;33.05;73419.97;5002038;28;62188;-79
2023/06/09 03:13:06;;;;;;;;;0.00;0.00;;;;;-146.67;32.71;73421.97;5001147;28;62051;-79
2023/06/09 03:15:32;;;;;;;;;0.00;0.00;;;;;-146.67;32.96;73423.97;5000424;28;63816;-79
2023/06/09 03:17:57;;;;;;;;;0.00;0.00;;;;;-146.67;33.04;73429.97;5000980;28;61853;-79
2023/06/09 03:20:24;;;;;;;;;0.00;0.00;;;;;-146.67;32.75;73425.97;5002215;28;61973;-79
2023/06/09 03:22:52;;;;;;;;;0.00;0.00;;;;;-146.67;32.66;73423.97;5001972;28;62145;-80
2023/06/09 03:25:21;;;;;;;;;0.00;0.00;;;;;-146.67;32.67;73429.97;4999816;28;64145;-79
2023/06/09 03:27:46;;;;;;;;;0.00;0.00;;;;;-146.67;33.18;73447.91;5002279;28;61766;-79
2023/06/09 03:30:12;;;;;;;;;0.00;0.00;;;;;-146.67;33.23;73449.91;4984300;28;61840;-79
2023/06/09 03:32:37;;;;;;;;;0.00;0.00;;;;;-146.67;33.46;73463.88;5002224;28;61878;-79
2023/06/09 03:35:03;;;;;;;;;0.00;0.00;;;;;-146.67;33.46;73465.88;4983919;28;63674;-79
2023/06/09 03:37:29;;;;;;;;;0.00;0.00;;;;;-146.67;33.19;73477.84;5000386;28;61967;-80
2023/06/09 03:39:54;;;;;;;;;0.00;0.00;;;;;-146.67;33.12;73477.84;4996297;28;61972;-79
2023/06/09 03:42:19;;;;;;;;;0.00;0.00;;;;;-146.67;33.53;73479.84;4984210;28;61630;-79
2023/06/09 03:44:45;;;;;;;;;0.00;0.00;;;;;-146.67;33.63;73481.84;4983957;28;64803;-79
2023/06/09 03:47:10;;;;;;;;;0.00;0.00;;;;;-146.67;33.07;73475.88;4984233;28;61870;-79
2023/06/09 03:49:36;;;;;;;;;0.00;0.00;;;;;-146.67;33.50;73469.88;4986017;28;61884;-79
2023/06/09 03:52:01;;;;;;;;;0.00;0.00;;;;;-146.67;33.14;73467.88;5000685;28;61945;-80
2023/06/09 03:54:27;;;;;;;;;0.00;0.00;;;;;-146.67;33.49;73477.84;4999710;28;63419;-79
2023/06/09 03:56:53;;;;;;;;;0.00;0.00;;;;;-146.67;33.16;73477.84;4985919;28;62115;-79
2023/06/09 03:59:18;;;;;;;;;0.00;0.00;;;;;-146.67;33.19;73477.84;4969629;28;62048;-79
2023/06/09 04:01:43;;;;;;;;;0.00;0.00;;;;;-146.67;33.35;73481.84;4981286;28;61775;-79
2023/06/09 04:04:09;;;;;;;;;0.00;0.00;;;;;-146.67;33.33;73483.84;4965216;28;62082;-79
2023/06/09 04:06:36;;;;;;;;;0.00;0.00;;;;;-146.67;33.56;73485.84;4965674;28;62321;-79
2023/06/09 04:09:03;;;;;;;;;0.00;0.00;;;;;-146.67;33.16;73485.84;4965524;28;61964;-79
2023/06/09 04:11:29;;;;;;;;;0.00;0.00;;;;;-146.67;33.49;73477.84;4965916;28;62001;-79
2023/06/09 04:13:55;;;;;;;;;0.00;0.00;;;;;-146.67;33.28;73473.88;4965117;28;61838;-79
2023/06/09 04:16:21;;;;;;;;;0.00;0.00;;;;;-146.67;33.33;73469.88;4980928;28;62161;-79
2023/06/09 04:18:46;;;;;;;;;0.00;0.00;;;;;-146.67;33.39;73467.88;4966107;28;62200;-79
2023/06/09 04:21:13;;;;;;;;;0.00;0.00;;;;;-146.67;33.34;73465.88;4983799;28;61954;-79
2023/06/09 04:23:38;;;;;;;;;0.00;0.00;;;;;-146.67;33.00;73465.88;4994794;28;63837;-79
2023/06/09 04:26:08;;;;;;;;;0.00;0.00;;;;;-146.67;33.13;73471.88;4984181;28;61930;-79
2023/06/09 04:28:34;;;;;;;;;0.00;0.00;;;;;-146.67;33.26;73469.88;4983604;28;61868;-79
2023/06/09 04:31:00;;;;;;;;;0.00;0.00;;;;;-146.67;33.00;73471.88;4984093;28;61833;-79
2023/06/09 04:33:26;;;;;;;;;0.00;0.00;;;;;-146.67;33.38;73479.84;4982967;28;64740;-79
2023/06/09 04:35:54;;;;;;;;;0.00;0.00;;;;;-146.67;33.38;73479.84;4984780;28;62024;-79
2023/06/09 04:38:23;;;;;;;;;0.00;0.00;;;;;-146.67;33.26;73481.84;4982980;28;61886;-80
2023/06/09 04:40:48;;;;;;;;;0.00;0.00;;;;;-146.67;33.21;73481.84;4983447;28;62054;-79
2023/06/09 04:43:14;;;;;;;;;0.00;0.00;;;;;-146.67;33.22;73479.84;4982977;28;64854;-79
2023/06/09 04:45:39;;;;;;;;;1.00;1.00;;;;;-146.67;33.12;73483.84;4979919;28;62151;-79
2023/06/09 04:48:05;;;;;;;;;0.00;0.00;;;;;-146.67;33.43;73487.84;4974686;28;62023;-79
2023/06/09 04:50:33;;;;;;;;;0.00;0.00;;;;;-146.67;33.13;73483.84;4984845;28;61748;-79
2023/06/09 04:52:59;;;;;;;;;0.00;0.00;;;;;-146.67;33.07;73475.88;4981218;28;64643;-79
2023/06/09 04:55:26;;;;;;;;;0.00;0.00;;;;;-146.67;33.12;73483.84;4984719;28;61922;-79
2023/06/09 04:57:56;;;;;;;;;0.00;0.00;;;;;-146.67;33.27;73491.84;4980194;28;62101;-79
2023/06/09 05:00:30;;;;;;;;;0.00;0.00;;;;;-146.67;33.25;73483.84;4978235;28;61747;-79
2023/06/09 05:03:05;;;;;;;;;0.00;0.00;;;;;-146.67;33.26;73479.84;4982504;28;63688;-77
2023/06/09 05:05:31;;;;;;;;;0.00;0.00;;;;;-146.67;33.27;73483.84;4984782;28;61853;-81
2023/06/09 05:07:56;;;;;;;;;0.00;0.00;;;;;-146.67;33.11;73479.84;4982129;28;61741;-79
2023/06/09 05:10:21;;;;;;;;;0.00;0.00;;;;;-146.67;33.12;73469.88;4983378;28;61829;-81
2023/06/09 05:12:48;;;;;;;;;0.00;0.00;;;;;-146.67;32.92;73457.91;4983400;28;61959;-80
2023/06/09 05:15:13;;;;;;;;;0.00;0.00;;;;;-146.67;32.98;73451.91;4983815;28;62212;-81
2023/06/09 05:17:41;;;;;;;;;0.00;0.00;;;;;-146.67;33.14;73461.88;4983226;28;61833;-80
2023/06/09 05:20:10;;;;;;;;;0.00;0.00;;;;;-146.67;32.84;73457.91;4982907;28;61962;-81
2023/06/09 05:22:36;;;;;;;;;0.00;0.00;;;;;-146.67;32.71;73455.91;4982680;28;63030;-80
2023/06/09 05:25:05;;;;;;;;;0.00;0.00;;;;;-146.67;32.94;73449.91;4984052;28;61821;-90
2023/06/09 05:27:31;;;;;;;;;0.00;0.00;;;;;-146.67;32.62;73431.94;4984187;28;61951;-87
2023/06/09 05:29:57;;;;;;;;;0.00;0.00;;;;;-146.67;32.54;73408.00;4982997;28;61762;-88
2023/06/09 05:32:22;;;;;;;;;0.00;0.00;;;;;-146.67;32.36;73368.09;4983673;28;62105;-85
2023/06/09 05:34:48;;;;;;;;;0.00;0.00;;;;;-146.67;31.98;73330.16;4982943;28;61907;-87
2023/06/09 05:37:15;;;;;;;;;0.00;0.00;;;;;-146.67;31.45;73278.28;4978358;28;61816;-85
2023/06/09 05:39:40;;;;;;;;;0.00;0.00;;;;;-146.67;30.91;73216.41;4984788;28;61874;-84
2023/06/09 05:42:14;;;;;;;;;0.00;0.00;;;;;-146.67;30.34;73142.56;5002442;28;62651;-85
2023/06/09 05:44:39;;;;;;;;;0.00;0.00;;;;;-146.67;30.25;73086.69;5003276;28;62055;-85
2023/06/09 05:47:05;;;;;;;;;0.00;0.00;;;;;-146.67;29.24;72994.88;4985054;28;62472;-85
2023/06/09 05:49:31;;;;;;;;;0.00;0.00;;;;;-146.67;29.34;73026.81;5002710;28;62011;-84
2023/06/09 05:51:56;;;;;;;;;0.00;0.00;;;;;-146.67;29.26;72986.88;4976895;28;63191;-81
2023/06/09 05:54:22;;;;;;;;;0.00;0.00;;;;;-146.67;28.92;72984.91;5000949;28;62379;-81
2023/06/09 05:56:48;;;;;;;;;0.00;0.00;;;;;-146.67;29.31;73008.84;4985440;28;61750;-81
2023/06/09 05:59:15;;;;;;;;;0.00;0.00;;;;;-146.67;29.33;73020.81;4984279;28;62044;-81
2023/06/09 06:01:41;;;;;;;;;0.00;0.00;;;;;-146.67;29.15;73014.81;5002273;28;62002;-81
2023/06/09 06:04:08;;;;;;;;;0.00;0.00;;;;;-146.67;29.47;73006.84;4997455;28;62144;-81
2023/06/09 06:06:34;;;;;;;;;0.00;0.00;;;;;-146.67;29.05;73010.84;4986252;28;61997;-81
2023/06/09 06:08:59;;;;;;;;;0.00;0.00;;;;;-146.67;29.49;73030.78;4984708;28;61768;-81
2023/06/09 06:11:25;;;;;;;;;0.00;0.00;;;;;-146.67;29.46;73036.78;4984215;28;63812;-82
2023/06/09 06:13:50;;;;;;;;;0.00;0.00;;;;;-146.67;29.41;73040.78;4985151;28;61933;-82
2023/06/09 06:16:16;;;;;;;;;0.00;0.00;;;;;-146.67;29.54;73036.78;4981461;28;62108;-81
2023/06/09 06:18:41;;;;;;;;;0.00;0.00;;;;;-146.67;29.57;73032.78;4981728;28;61999;-82
2023/06/09 06:21:07;;;;;;;;;0.00;0.00;;;;;-146.67;29.35;73010.84;4982797;28;63967;-82
2023/06/09 06:23:32;;;;;;;;;0.00;0.00;;;;;-146.67;28.94;72958.94;5002186;28;62051;-82
2023/06/09 06:25:58;;;;;;;;;0.00;0.00;;;;;-146.67;28.22;72811.28;4992835;28;62321;-82
2023/06/09 06:28:23;;;;;;;;;0.00;0.00;;;;;-146.67;27.58;72767.38;5002122;28;61766;-83
2023/06/09 06:30:50;;;;;;;;;0.00;0.00;;;;;-146.67;27.87;72799.28;4982465;28;64901;-82
2023/06/09 06:33:16;;;;;;;;;0.00;0.00;;;;;-146.67;28.18;72827.22;4983800;28;61873;-83
2023/06/09 06:35:41;;;;;;;;;0.00;0.00;;;;;-146.67;28.07;72871.13;4984140;28;61913;-83
2023/06/09 06:38:07;;;;;;;;;0.00;0.00;;;;;-146.67;28.17;72903.06;5000935;28;61818;-82
2023/06/09 06:40:33;;;;;;;;;0.00;0.00;;;;;-146.67;28.37;72933.00;4982386;28;65089;-83
2023/06/09 06:42:58;;;;;;;;;0.00;0.00;;;;;-146.67;28.47;72950.97;4982650;28;62001;-84
2023/06/09 06:45:25;;;;;;;;;0.00;0.00;;;;;-146.67;28.55;72974.91;4983394;28;61972;-83
2023/06/09 06:47:52;;;;;;;;;0.00;0.00;;;;;-146.67;29.04;72992.88;5001447;28;61952;-82
2023/06/09 06:50:17;;;;;;;;;0.00;0.00;;;;;-146.67;28.98;73010.84;4980577;28;64591;-78
2023/06/09 06:52:42;;;;;;;;;1.00;1.00;;;;;-146.67;28.87;73034.78;5001328;28;62025;-79
2023/06/09 06:55:08;;;;;;;;;0.00;0.00;;;;;-146.67;28.86;73032.78;5001459;28;61692;-80
2023/06/09 06:57:38;;;;;;;;;0.00;0.00;;;;;-146.67;29.13;73028.78;5001705;28;61985;-79
2023/06/09 07:00:16;;;;;;;;;0.00;0.00;;;;;-146.67;29.07;73026.81;5001134;28;63004;-80
2023/06/09 07:02:44;;;;;;;;;0.00;0.00;;;;;-146.67;28.88;73034.78;4983918;28;61731;-79
2023/06/09 07:05:10;;;;;;;;;0.00;0.00;;;;;-146.67;29.02;73058.72;4984303;28;61970;-80
2023/06/09 07:07:36;;;;;;;;;1.00;1.00;;;;;-146.67;29.16;73058.72;4979887;28;62073;-85
2023/06/09 07:10:03;;;;;;;;;0.00;0.00;;;;;-146.67;28.94;73068.72;4980023;28;64258;-86
2023/06/09 07:12:28;;;;;;;;;0.00;0.00;;;;;-146.67;29.03;73058.72;4964471;28;61879;-86
2023/06/09 07:14:55;;;;;;;;;0.00;0.00;;;;;-146.67;29.28;73066.72;4965777;28;61976;-86
2023/06/09 07:17:21;;;;;;;;;0.00;0.00;;;;;-146.67;29.03;73058.72;4999880;28;62207;-88
2023/06/09 07:19:46;;;;;;;;;0.00;0.00;;;;;-146.67;29.12;73058.72;4999558;28;64300;-87
2023/06/09 07:22:11;;;;;;;;;0.00;0.00;;;;;-146.67;29.03;73054.75;5000445;28;61773;-87
2023/06/09 07:24:37;;;;;;;;;0.00;0.00;;;;;-146.67;28.73;73054.75;5001588;28;62564;-87
2023/06/09 07:27:02;;;;;;;;;0.00;0.00;;;;;-146.67;29.04;73060.72;5001994;28;61805;-87
2023/06/09 07:29:28;;;;;;;;;0.00;0.00;;;;;-146.67;28.73;73066.72;4983422;28;63977;-81
2023/06/09 07:31:53;;;;;;;;;0.00;0.00;;;;;-146.67;28.95;73064.72;4983536;28;62080;-85
2023/06/09 07:34:19;;;;;;;;;0.00;0.00;;;;;-146.67;29.09;73062.72;5002087;28;61829;-87
2023/06/09 07:36:50;;;;;;;;;0.00;0.00;;;;;-146.67;28.95;73068.72;4983425;28;61905;-88
2023/06/09 07:39:15;;;;;;;;;0.00;0.00;;;;;-146.67;28.95;73078.69;4982279;28;63660;-87
2023/06/09 07:41:41;;;;;;;;;0.00;0.00;;;;;-146.67;28.95;73070.72;5000868;28;61880;-86
2023/06/09 07:44:08;;;;;;;;;3.00;3.00;;;;;-146.67;28.88;73086.69;5001628;28;61813;-86
2023/06/09 07:46:33;;;;;;;;;0.00;0.00;;;;;-146.67;29.03;73082.69;4983375;28;61946;-87
2023/06/09 07:48:59;;;;;;;;;0.00;0.00;;;;;-146.67;28.98;73080.69;5000925;28;61985;-86
2023/06/09 07:51:26;;;;;;;;;0.00;0.00;;;;;-146.67;29.01;73082.69;4983407;28;61952;-86
2023/06/09 07:53:52;;;;;;;;;0.00;0.00;;;;;-146.67;28.90;73078.69;4985377;28;62046;-85
2023/06/09 07:56:17;;;;;;;;;0.00;0.00;;;;;-146.67;28.99;73074.69;4983968;28;61949;-83
2023/06/09 07:58:42;;;;;;;;;0.00;0.00;;;;;-146.67;28.83;73058.72;5000398;28;61779;-83
2023/06/09 08:01:08;;;;;;;;;0.00;0.00;;;;;-146.67;28.64;73054.75;5000953;28;61885;-87
2023/06/09 08:03:34;;;;;;;;;0.00;0.00;;;;;-146.67;28.98;73056.75;5000236;28;61964;-84
2023/06/09 08:06:01;;;;;;;;;0.00;0.00;;;;;-146.67;28.90;73054.75;5001249;28;61741;-88
2023/06/09 08:08:28;;;;;;;;;0.00;0.00;;;;;-146.67;28.64;73042.75;5000312;28;62101;-87
2023/06/09 08:10:54;;;;;;;;;0.00;0.00;;;;;-146.67;28.77;73038.78;4999842;28;61832;-86
2023/06/09 08:13:19;;;;;;;;;0.00;0.00;;;;;-146.67;28.73;73036.78;5000055;28;62117;-89
2023/06/09 08:15:45;;;;;;;;;0.00;0.00;;;;;-146.67;28.72;73028.78;5000957;28;62226;-83
2023/06/09 08:18:10;;;;;;;;;0.00;0.00;;;;;-146.67;28.78;73012.84;4999371;28;63832;-86
2023/06/09 08:20:36;;;;;;;;;0.00;0.00;;;;;-146.67;28.60;73010.84;5001157;28;61974;-85
2023/06/09 08:23:02;;;;;;;;;11.00;10.00;;;;;-146.67;28.39;73006.84;4999581;28;62054;-84
2023/06/09 08:25:27;;;;;;;;;0.00;0.00;;;;;-146.67;28.97;73008.84;5001411;28;62064;-87
2023/06/09 08:27:52;;;;;;;;;0.00;0.00;;;;;-146.67;28.57;72992.88;4998966;28;64727;-88
2023/06/09 08:30:18;;;;;;;;;0.00;0.00;;;;;-146.67;28.92;72982.91;5002625;28;62023;-88
2023/06/09 08:32:46;;;;;;;;;0.00;0.00;;;;;-146.67;28.70;72970.91;5002830;28;61969;-84
2023/06/09 08:35:12;;;;;;;;;0.00;0.00;;;;;-146.67;28.55;72964.94;5004630;28;61916;-86
2023/06/09 08:37:38;;;;;;;;;0.00;0.00;;;;;-146.67;28.48;72970.91;4996196;28;63706;-87
2023/06/09 08:40:05;;;;;;;;;0.00;0.00;;;;;-146.67;28.46;72976.91;4984985;28;61918;-84
2023/06/09 08:42:34;;;;;;;;;0.00;0.00;;;;;-146.67;28.85;72962.94;5004259;28;61794;-87
2023/06/09 08:45:02;;;;;;;;;0.00;0.00;;;;;-146.67;28.73;72944.97;5002507;28;62071;-90
2023/06/09 08:47:28;;;;;;;;;0.00;0.00;;;;;-146.67;28.37;72927.00;5003447;28;61818;-89
2023/06/09 08:49:57;;;;;;;;;0.00;0.00;;;;;-146.67;28.70;72925.03;4985896;28;61971;-87
2023/06/09 08:52:27;;;;;;;;;0.00;0.00;;;;;-146.67;28.44;72919.03;4985782;28;61842;-88
2023/06/09 08:54:54;;;;;;;;;0.00;0.00;;;;;-146.67;28.57;72913.03;5000115;28;61855;-87
2023/06/09 08:57:20;;;;;;;;;0.00;0.00;;;;;-146.67;28.35;72901.06;5003059;28;62325;-83
2023/06/09 08:59:47;;;;;;;;;0.00;0.00;;;;;-146.67;28.27;72907.06;4981953;28;62464;-84
2023/06/09 09:02:13;;;;;;;;;0.00;0.00;;;;;-146.67;28.20;72903.06;4992571;28;62100;-85
2023/06/09 09:04:38;;;;;;;;;0.00;0.00;;;;;-146.67;28.45;72895.09;4984927;28;62114;-83
2023/06/09 09:07:05;;;;;;;;;0.00;0.00;;;;;-146.67;28.20;72879.13;5002598;28;62907;-83
2023/06/09 09:09:31;;;;;;;;;0.00;0.00;;;;;-146.67;28.24;72885.09;4985652;28;61888;-87
2023/06/09 09:12:02;;;;;;;;;0.00;0.00;;;;;-146.67;28.28;72877.13;5002091;28;61927;-87
2023/06/09 09:14:27;;;;;;;;;0.00;0.00;;;;;-146.67;28.87;72877.13;5002456;28;61842;-87
2023/06/09 09:16:53;;;;;;;;;0.00;0.00;;;;;-146.67;28.41;72867.16;5000041;28;63983;-84
2023/06/09 09:19:26;;;;;;;;;0.00;0.00;;;;;-146.67;28.39;72851.19;5002270;28;62106;-86
2023/06/09 09:21:53;;;;;;;;;0.00;0.00;;;;;-146.67;28.13;72861.16;5002394;28;62235;-86
2023/06/09 09:24:18;;;;;;;;;0.00;0.00;;;;;-146.67;27.86;72859.16;5002443;28;62191;-87
2023/06/09 09:26:44;;;;;;;;;0.00;0.00;;;;;-146.67;28.20;72855.16;5002228;28;61798;-88
2023/06/09 09:29:09;;;;;;;;;0.00;0.00;;;;;-146.67;28.22;72837.22;4984176;28;62088;-87
2023/06/09 09:31:44;;;;;;;;;0.00;0.00;;;;;-146.67;27.58;72833.22;4984625;28;61921;-85
2023/06/09 09:34:11;;;;;;;;;0.00;0.00;;;;;-146.67;27.70;72823.25;4983568;28;61810;-84
2023/06/09 09:36:44;;;;;;;;;0.00;0.00;;;;;-146.67;27.82;72815.25;4998824;28;65138;-84
2023/06/09 09:39:10;;;;;;;;;0.00;0.00;;;;;-146.67;27.39;72803.28;4983530;28;62404;-82
2023/06/09 09:41:35;;;;;;;;;0.00;0.00;;;;;-146.67;27.67;72787.31;4996822;28;61972;-82
2023/06/09 09:44:00;;;;;;;;;0.00;0.00;;;;;-146.67;27.70;72785.31;4990353;28;62023;-84
2023/06/09 09:46:26;;;;;;;;;0.00;0.00;;;;;-146.67;27.54;72767.38;4994748;28;62718;-82
2023/06/09 09:48:54;;;;;;;;;0.00;0.00;;;;;-146.67;27.35;72751.41;4979923;28;61965;-85
2023/06/09 09:51:20;;;;;;;;;0.00;0.00;;;;;-146.67;27.62;72723.47;5005935;28;61948;-85
2023/06/09 09:53:46;;;;;;;;;0.00;0.00;;;;;-146.67;27.19;72713.47;5010876;28;62046;-84
2023/06/09 09:56:17;;;;;;;;;0.00;0.00;;;;;-146.67;26.92;72693.53;4983839;28;64438;-88
2023/06/09 09:58:44;;;;;;;;;0.00;0.00;;;;;-146.67;26.93;72679.56;4984289;28;62125;-87
2023/06/09 10:01:11;;;;;;;;;0.00;0.00;;;;;-146.67;26.88;72661.59;5003241;28;61933;-87
2023/06/09 10:03:42;;;;;;;;;0.00;0.00;;;;;-146.67;27.27;72639.66;5001621;28;61890;-85
2023/06/09 10:06:12;;;;;;;;;0.00;0.00;;;;;-146.67;26.79;72635.66;4994912;28;64133;-86
2023/06/09 10:08:42;;;;;;;;;0.00;0.00;;;;;-146.67;26.41;72623.69;5001533;28;61905;-85
2023/06/09 10:11:07;;;;;;;;;0.00;0.00;;;;;-146.67;26.42;72595.75;4982697;28;61955;-84
2023/06/09 10:13:35;;;;;;;;;0.00;0.00;;;;;-146.67;26.65;72593.75;5000231;28;62190;-83
2023/06/09 10:16:01;;;;;;;;;0.00;0.00;;;;;-146.67;26.22;72539.88;4982045;28;63670;-82
2023/06/09 10:18:27;;;;;;;;;0.00;0.00;;;;;-146.67;26.33;72531.91;5000114;28;61987;-83
2023/06/09 10:20:55;;;;;;;;;0.00;0.00;;;;;-146.67;26.12;72519.91;4997926;28;62090;-81
2023/06/09 10:23:23;;;;;;;;;0.00;0.00;;;;;-146.67;26.20;72495.97;4980200;28;61988;-80
2023/06/09 10:25:50;;;;;;;;;0.00;0.00;;;;;-146.67;25.82;72476.03;4998154;28;63296;-80
2023/06/09 10:28:16;;;;;;;;;0.00;0.00;;;;;-146.67;25.39;72454.06;4981297;28;62063;-77
2023/06/09 10:30:43;;;;;;;;;0.00;0.00;;;;;-146.67;25.50;72436.13;4999227;28;61946;-77
2023/06/09 10:33:13;;;;;;;;;0.00;0.00;;;;;-146.67;25.40;72420.16;4989001;28;61837;-78
2023/06/09 10:35:41;;;;;;;;;4.00;4.00;;;;;-146.67;24.97;72368.28;5000158;28;62092;-78
2023/06/09 10:38:29;;;;;;;;;0.00;0.00;;;;;-146.67;25.21;72368.28;4987804;28;62084;-78
2023/06/09 10:41:10;;;;;;;;;0.00;0.00;;;;;-146.67;25.25;72332.34;4980936;28;62024;-78
2023/06/09 10:44:17;;;;;;;;;0.00;0.00;;;;;-146.67;24.61;72316.38;4999287;28;62108;-79
2023/06/09 10:46:48;;;;;;;;;0.00;0.00;;;;;-146.67;24.84;72296.44;4999358;28;63119;-80
2023/06/09 10:49:25;;;;;;;;;0.00;0.00;;;;;-146.67;24.65;72280.47;4999558;28;61894;-80
2023/06/09 10:51:54;;;;;;;;;0.00;0.00;;;;;-146.67;23.61;72258.53;4979658;28;61902;-79
2023/06/09 10:54:24;;;;;;;;;0.00;0.00;;;;;-146.67;23.90;72238.56;4998224;28;61810;-76
2023/06/09 10:56:55;;;;;;;;;0.00;0.00;;;;;-146.67;23.25;72212.63;4983506;28;63503;-83
2023/06/09 10:59:27;;;;;;;;;0.00;0.00;;;;;-146.67;22.99;72190.69;4991487;28;61985;-83
2023/06/09 11:02:01;;;;;;;;;0.00;0.00;;;;;-146.67;23.38;72178.72;5001872;28;62057;-82
2023/06/09 11:07:12;;;;;;;;;0.00;0.00;;;;;-146.67;23.33;72134.81;5009582;28;62504;-81
2023/06/09 11:09:37;;;;;;;;;0.67;0.67;;;;;-146.67;22.90;72128.84;4988585;28;61908;-81
2023/06/09 11:12:03;;;;;;;;;0.00;0.00;;;;;-146.67;22.99;72120.84;5001463;28;62256;-82
2023/06/09 11:14:44;;;;;;;;;0.00;0.00;;;;;-146.67;22.46;72074.97;4979679;28;62093;-81
2023/06/09 11:17:15;;;;;;;;;0.00;0.00;;;;;-146.67;22.71;72090.91;4973318;28;64126;-82
2023/06/09 11:19:41;;;;;;;;;0.00;0.00;;;;;-146.67;22.84;72072.97;4990185;28;62373;-82